Time;durP1;ratioP1;P1;durP2;ratioP2;P2;SDS_P1;SDS_P2;PMS_P1;PMS_P2;Temp;Humidity;BMP_temperature;BMP_pressure;BME280_temperature;BME280_humidity;BME280_pressure;Samples;Min_cycle;Max_cycle;Signal;HPM_P1;HPM_P2
2022/05/08 00:02:06;;;;;;;19.53;17.63;;;18.10;97.40;;;;;;4851516;29;20544;-84
2022/05/08 00:04:34;;;;;;;19.40;17.50;;;18.00;97.50;;;;;;4850589;29;20478;-83
2022/05/08 00:07:00;;;;;;;19.93;18.03;;;18.00;97.70;;;;;;4857721;29;20465;-83
2022/05/08 00:09:27;;;;;;;21.17;18.93;;;18.00;98.00;;;;;;4857778;29;20510;-85
2022/05/08 00:11:54;;;;;;;20.50;18.40;;;17.90;98.20;;;;;;4855232;29;20480;-84
2022/05/08 00:14:21;;;;;;;19.70;17.70;;;17.80;98.50;;;;;;4874779;29;20474;-82
2022/05/08 00:16:47;;;;;;;20.70;18.57;;;17.90;98.60;;;;;;4846417;29;20523;-84
2022/05/08 00:19:14;;;;;;;20.90;17.60;;;17.80;98.60;;;;;;4853063;29;20483;-85
2022/05/08 00:21:41;;;;;;;21.10;18.80;;;17.80;98.80;;;;;;4850450;29;20438;-85
2022/05/08 00:24:08;;;;;;;21.60;19.30;;;17.70;99.00;;;;;;4851767;29;20493;-84
2022/05/08 00:26:34;;;;;;;23.83;21.20;;;17.70;99.10;;;;;;4855886;29;20483;-85
2022/05/08 00:29:01;;;;;;;22.77;20.33;;;17.70;99.30;;;;;;4863624;29;20521;-83
2022/05/08 00:31:33;;;;;;;20.23;18.23;;;17.60;99.40;;;;;;4861978;29;20443;-84
2022/05/08 00:33:59;;;;;;;20.87;18.83;;;17.60;99.70;;;;;;4856868;29;20493;-82
2022/05/08 00:36:26;;;;;;;25.00;20.00;;;17.70;99.80;;;;;;4832127;29;20467;-81
2022/05/08 00:38:55;;;;;;;22.00;19.60;;;17.70;99.90;;;;;;4834530;29;20446;-81
2022/05/08 00:41:22;;;;;;;21.70;19.40;;;17.60;99.90;;;;;;4856519;29;20558;-82
2022/05/08 00:43:48;;;;;;;22.87;20.57;;;17.50;99.90;;;;;;4847490;29;20493;-82
2022/05/08 00:46:16;;;;;;;21.50;19.43;;;17.50;99.90;;;;;;4834051;29;20540;-82
2022/05/08 00:48:45;;;;;;;23.00;20.60;;;17.70;99.90;;;;;;4840550;29;20491;-83
2022/05/08 00:51:14;;;;;;;23.83;21.37;;;17.60;99.90;;;;;;4841115;29;20484;-84
2022/05/08 00:53:45;;;;;;;22.37;20.30;;;17.70;99.90;;;;;;4841795;29;20499;-82
2022/05/08 00:56:14;;;;;;;23.03;20.80;;;17.40;99.90;;;;;;4843959;29;20501;-83
2022/05/08 00:58:42;;;;;;;21.40;19.27;;;17.40;99.90;;;;;;4839129;29;20463;-82
2022/05/08 01:01:09;;;;;;;23.37;21.10;;;17.30;99.90;;;;;;4837878;29;20457;-83
2022/05/08 01:03:37;;;;;;;22.77;20.50;;;17.30;99.90;;;;;;4836713;29;20578;-83
2022/05/08 01:06:06;;;;;;;22.30;20.20;;;17.30;99.90;;;;;;4845808;29;20458;-84
2022/05/08 01:08:36;;;;;;;22.20;19.90;;;17.20;99.90;;;;;;4847426;29;20882;-83
2022/05/08 01:11:04;;;;;;;22.40;20.13;;;17.20;99.90;;;;;;4838151;29;20471;-83
2022/05/08 01:13:30;;;;;;;21.87;19.73;;;17.30;99.90;;;;;;4841989;29;20493;-84
2022/05/08 01:15:57;;;;;;;23.17;20.87;;;17.40;99.90;;;;;;4836659;29;20466;-82
2022/05/08 01:18:25;;;;;;;23.73;20.07;;;17.50;99.90;;;;;;4836939;29;20473;-83
2022/05/08 01:20:52;;;;;;;24.17;21.67;;;17.40;99.90;;;;;;4832829;29;20471;-83
2022/05/08 01:23:19;;;;;;;24.63;21.33;;;17.30;99.90;;;;;;4840789;29;21013;-79
2022/05/08 01:25:50;;;;;;;24.67;21.90;;;17.30;99.90;;;;;;4836569;29;20467;-84
2022/05/08 01:28:17;;;;;;;24.27;21.77;;;17.60;99.90;;;;;;4845600;29;20475;-84
2022/05/08 01:30:47;;;;;;;23.27;20.97;;;17.60;99.90;;;;;;4840399;29;20855;-86
2022/05/08 01:33:14;;;;;;;23.30;20.93;;;17.40;99.90;;;;;;4839966;29;20479;-84
2022/05/08 01:35:42;;;;;;;25.27;22.70;;;17.40;99.90;;;;;;4832921;29;20462;-85
2022/05/08 01:38:11;;;;;;;23.60;21.10;;;17.50;99.90;;;;;;4839122;29;20471;-85
2022/05/08 01:40:39;;;;;;;27.20;24.33;;;17.60;99.90;;;;;;4851420;29;20464;-84
2022/05/08 01:43:06;;;;;;;25.00;22.50;;;17.50;99.90;;;;;;4841798;29;20491;-85
2022/05/08 01:45:33;;;;;;;23.57;21.27;;;17.50;99.90;;;;;;4836729;29;20458;-82
2022/05/08 01:50:46;;;;;;;23.97;21.67;;;17.20;99.90;;;;;;4850117;29;20518;-83
2022/05/08 01:53:12;;;;;;;24.87;22.17;;;17.00;99.90;;;;;;4842442;29;20498;-85
2022/05/08 01:55:39;;;;;;;23.13;20.90;;;17.20;99.90;;;;;;4845345;29;20553;-85
2022/05/08 01:58:06;;;;;;;24.07;21.50;;;17.10;99.90;;;;;;4849061;29;20494;-82
2022/05/08 02:00:33;;;;;;;23.50;21.07;;;17.20;99.90;;;;;;4851835;29;20458;-83
2022/05/08 02:03:02;;;;;;;25.40;21.67;;;17.10;99.90;;;;;;4848041;29;20486;-83
2022/05/08 02:05:31;;;;;;;25.73;23.13;;;17.20;99.90;;;;;;4860838;29;20472;-85
2022/05/08 02:08:01;;;;;;;26.13;23.43;;;17.20;99.90;;;;;;4847871;29;20470;-84
2022/05/08 02:10:28;;;;;;;23.43;21.13;;;17.10;99.90;;;;;;4833357;29;20465;-85
2022/05/08 02:12:55;;;;;;;25.13;22.53;;;17.00;99.90;;;;;;4844165;29;20526;-84
2022/05/08 02:15:22;;;;;;;25.87;23.17;;;17.20;99.90;;;;;;4835027;29;20451;-82
2022/05/08 02:17:48;;;;;;;25.27;22.50;;;17.10;99.90;;;;;;4837897;29;20600;-84
2022/05/08 02:20:15;;;;;;;24.63;22.07;;;17.10;99.90;;;;;;4842066;29;20432;-86
2022/05/08 02:22:42;;;;;;;24.13;21.83;;;16.90;99.90;;;;;;4840918;29;20483;-85
2022/05/08 02:25:09;;;;;;;24.60;22.20;;;16.90;99.90;;;;;;4840371;29;20818;-85
2022/05/08 02:27:41;;;;;;;25.17;22.67;;;17.00;99.90;;;;;;4844616;29;20471;-83
2022/05/08 02:30:10;;;;;;;24.70;22.10;;;17.20;99.90;;;;;;4841247;29;20451;-82
2022/05/08 02:32:48;;;;;;;25.77;23.10;;;17.20;99.90;;;;;;4852189;29;20930;-85
2022/05/08 02:35:17;;;;;;;24.93;22.37;;;17.10;99.90;;;;;;4847532;29;20466;-84
2022/05/08 02:37:50;;;;;;;24.10;21.60;;;17.10;99.90;;;;;;4848489;29;20470;-84
2022/05/08 02:40:23;;;;;;;23.47;21.17;;;17.10;99.90;;;;;;4843792;29;20788;-84
2022/05/08 02:42:52;;;;;;;22.33;19.90;;;17.10;99.90;;;;;;4846646;29;20490;-84
2022/05/08 02:45:22;;;;;;;23.13;20.07;;;17.10;99.90;;;;;;4838297;29;20492;-83
2022/05/08 02:47:57;;;;;;;23.77;21.30;;;17.10;99.90;;;;;;4844361;29;20470;-83
2022/05/08 02:50:27;;;;;;;22.30;19.17;;;16.90;99.90;;;;;;4842279;29;20972;-83
2022/05/08 02:53:01;;;;;;;21.50;19.50;;;16.80;99.90;;;;;;4850818;29;20501;-85
2022/05/08 02:58:34;;;;;;;19.23;17.20;;;16.70;99.90;;;;;;4850947;29;20470;-85
2022/05/08 03:01:04;;;;;;;19.00;17.10;;;16.80;99.90;;;;;;4841415;29;20488;-83
2022/05/08 03:03:31;;;;;;;18.60;16.60;;;16.70;99.90;;;;;;4841695;29;20517;-83
2022/05/08 03:05:59;;;;;;;20.00;17.83;;;16.80;99.90;;;;;;4852498;29;20470;-83
2022/05/08 03:08:26;;;;;;;21.30;17.53;;;16.90;99.90;;;;;;4836919;29;20462;-83
2022/05/08 03:13:39;;;;;;;22.30;18.57;;;16.90;99.50;;;;;;4842854;29;20495;-83
2022/05/08 03:16:10;;;;;;;20.07;18.07;;;16.70;99.80;;;;;;4839854;29;20893;-82
2022/05/08 03:18:39;;;;;;;19.13;17.17;;;16.50;99.90;;;;;;4841508;29;20487;-82
2022/05/08 03:21:06;;;;;;;19.20;17.30;;;16.60;99.90;;;;;;4852639;29;20474;-84
2022/05/08 03:23:35;;;;;;;17.77;16.07;;;16.70;99.70;;;;;;4844697;29;20487;-84
2022/05/08 03:26:04;;;;;;;15.83;14.23;;;16.60;99.80;;;;;;4840920;29;20462;-83
2022/05/08 03:28:31;;;;;;;18.07;16.03;;;16.50;99.70;;;;;;4843920;29;20462;-82
2022/05/08 03:31:01;;;;;;;16.30;14.70;;;16.50;99.70;;;;;;4849241;29;20564;-83
2022/05/08 03:33:30;;;;;;;20.80;16.00;;;16.40;99.80;;;;;;4841738;29;20509;-83
2022/05/08 03:35:58;;;;;;;15.33;13.60;;;16.30;99.90;;;;;;4842411;29;20467;-83
2022/05/08 03:38:27;;;;;;;17.40;15.00;;;16.20;99.90;;;;;;4846246;29;20466;-84
2022/05/08 03:40:54;;;;;;;16.27;14.27;;;16.20;99.90;;;;;;4842197;29;20546;-83
2022/05/08 03:43:22;;;;;;;15.80;14.10;;;16.10;99.90;;;;;;4845813;29;20502;-83
2022/05/08 03:45:49;;;;;;;16.33;14.67;;;16.20;99.90;;;;;;4847652;29;20469;-83
2022/05/08 03:48:27;;;;;;;14.40;12.90;;;16.20;99.90;;;;;;4844869;29;20447;-83
2022/05/08 03:50:54;;;;;;;15.53;13.93;;;16.10;99.90;;;;;;4837095;29;20448;-82
2022/05/08 03:53:21;;;;;;;15.83;14.33;;;16.10;99.90;;;;;;4849413;29;20550;-83
2022/05/08 03:55:47;;;;;;;15.50;13.67;;;16.00;99.90;;;;;;4841399;29;20520;-84
2022/05/08 03:58:16;;;;;;;17.27;15.00;;;16.00;99.90;;;;;;4846415;29;20470;-84
2022/05/08 04:00:43;;;;;;;15.80;14.40;;;16.00;99.90;;;;;;4850699;29;20831;-84
2022/05/08 04:03:12;;;;;;;18.30;15.33;;;15.90;99.90;;;;;;4852232;29;20602;-84
2022/05/08 04:05:38;;;;;;;16.30;14.80;;;16.20;99.90;;;;;;4850449;29;20491;-82
2022/05/08 04:08:06;;;;;;;17.90;16.07;;;16.40;99.90;;;;;;4853710;29;20472;-84
2022/05/08 04:10:37;;;;;;;17.30;15.63;;;16.40;99.90;;;;;;4851808;29;20474;-84
2022/05/08 04:13:03;;;;;;;14.13;12.93;;;16.30;99.90;;;;;;4837533;29;20486;-83
2022/05/08 04:18:15;;;;;;;14.70;13.33;;;15.90;99.90;;;;;;4847085;29;20464;-83
2022/05/08 04:20:42;;;;;;;15.17;13.67;;;16.00;99.90;;;;;;4851303;29;20798;-83
2022/05/08 04:25:57;;;;;;;14.23;12.70;;;16.30;99.20;;;;;;4850146;29;20475;-83
2022/05/08 04:28:24;;;;;;;12.90;11.80;;;16.20;98.30;;;;;;4850998;29;20509;-86
2022/05/08 04:30:51;;;;;;;13.33;11.93;;;15.90;98.90;;;;;;4846364;29;20462;-84
2022/05/08 04:33:21;;;;;;;14.57;12.07;;;15.70;99.30;;;;;;4839490;29;20470;-83
2022/05/08 04:35:47;;;;;;;12.93;11.73;;;16.00;99.30;;;;;;4840103;29;20459;-84
2022/05/08 04:38:15;;;;;;;13.87;12.67;;;15.90;99.00;;;;;;4837283;29;20481;-83
2022/05/08 04:40:42;;;;;;;13.63;12.33;;;16.10;99.00;;;;;;4844726;29;20552;-84
2022/05/08 04:43:09;;;;;;;13.00;11.33;;;16.10;98.90;;;;;;4840448;29;20499;-84
2022/05/08 04:45:36;;;;;;;13.57;12.23;;;16.30;98.60;;;;;;4843918;29;20586;-85
2022/05/08 04:48:03;;;;;;;14.10;12.63;;;16.10;98.40;;;;;;4852249;29;20458;-84
2022/05/08 04:50:31;;;;;;;11.97;10.73;;;16.10;98.50;;;;;;4846910;29;20828;-84
2022/05/08 04:53:00;;;;;;;13.30;11.60;;;16.10;98.80;;;;;;4846837;29;20490;-84
2022/05/08 04:55:30;;;;;;;13.93;12.23;;;16.20;98.90;;;;;;4861297;29;21032;-84
2022/05/08 04:57:56;;;;;;;12.67;11.47;;;16.30;98.60;;;;;;4840162;29;20443;-84
2022/05/08 05:00:23;;;;;;;13.33;11.97;;;16.10;98.60;;;;;;4862734;29;20467;-83
2022/05/08 05:02:50;;;;;;;12.47;11.00;;;16.20;98.30;;;;;;4847134;29;20565;-84
2022/05/08 05:05:18;;;;;;;12.43;10.27;;;16.30;97.90;;;;;;4846941;29;20470;-84
2022/05/08 05:07:45;;;;;;;13.27;11.73;;;16.20;98.10;;;;;;4845388;29;21102;-85
2022/05/08 05:10:12;;;;;;;12.50;11.23;;;16.20;98.30;;;;;;4845380;29;20985;-84
2022/05/08 05:12:40;;;;;;;12.97;11.70;;;16.30;98.00;;;;;;4843330;29;20497;-80
2022/05/08 05:15:08;;;;;;;13.63;12.23;;;16.10;98.30;;;;;;4845550;29;21244;-84
2022/05/08 05:17:35;;;;;;;13.53;11.13;;;16.30;98.40;;;;;;4847880;29;20992;-83
2022/05/08 05:20:06;;;;;;;13.73;12.43;;;16.30;97.50;;;;;;4852303;29;20495;-83
2022/05/08 05:22:35;;;;;;;13.03;11.70;;;16.30;97.40;;;;;;4844933;29;20478;-83
2022/05/08 05:25:03;;;;;;;19.23;12.20;;;16.40;97.40;;;;;;4840906;29;21044;-84
2022/05/08 05:27:30;;;;;;;13.10;11.37;;;16.30;97.20;;;;;;4835127;29;20450;-83
2022/05/08 05:29:57;;;;;;;11.80;10.70;;;16.20;97.40;;;;;;4837908;29;20558;-84
2022/05/08 05:32:25;;;;;;;12.10;10.83;;;16.10;97.50;;;;;;4843132;29;20533;-85
2022/05/08 05:34:51;;;;;;;12.77;11.50;;;16.10;97.80;;;;;;4848067;29;20439;-86
2022/05/08 05:37:21;;;;;;;11.67;10.50;;;16.30;97.80;;;;;;4856805;29;20475;-83
2022/05/08 05:39:48;;;;;;;12.73;11.43;;;16.20;97.20;;;;;;4850205;29;20510;-84
2022/05/08 05:42:14;;;;;;;13.13;11.80;;;16.40;97.10;;;;;;4853475;29;20457;-85
2022/05/08 05:44:41;;;;;;;12.30;11.00;;;16.40;96.70;;;;;;4862442;29;20486;-82
2022/05/08 05:49:53;;;;;;;12.40;10.63;;;16.00;97.30;;;;;;4853171;29;20462;-81
2022/05/08 05:52:20;;;;;;;13.57;12.37;;;16.10;97.30;;;;;;4852639;29;20452;-80
2022/05/08 05:54:47;;;;;;;15.40;13.90;;;16.30;97.00;;;;;;4847076;29;20459;-82
2022/05/08 05:57:18;;;;;;;16.13;14.53;;;16.50;96.50;;;;;;4844885;29;20491;-84
2022/05/08 05:59:45;;;;;;;15.93;14.30;;;16.30;96.40;;;;;;4843763;29;20498;-85
2022/05/08 06:02:12;;;;;;;16.10;14.07;;;16.10;96.90;;;;;;4832449;29;20458;-84
2022/05/08 06:04:39;;;;;;;14.50;13.00;;;16.00;97.10;;;;;;4853572;29;20559;-84
2022/05/08 06:07:05;;;;;;;16.10;13.60;;;16.10;97.00;;;;;;4846464;29;20451;-83
2022/05/08 06:09:32;;;;;;;17.03;12.53;;;16.20;96.80;;;;;;4846000;29;20477;-83
2022/05/08 06:11:59;;;;;;;15.37;12.90;;;16.00;96.90;;;;;;4839457;29;20540;-83
2022/05/08 06:14:26;;;;;;;16.33;11.80;;;15.80;97.20;;;;;;4842669;29;20494;-83
2022/05/08 06:16:54;;;;;;;12.53;11.30;;;15.70;97.60;;;;;;4832833;29;20462;-84
2022/05/08 06:19:21;;;;;;;14.30;12.90;;;16.00;97.50;;;;;;4838147;29;20622;-83
2022/05/08 06:21:52;;;;;;;13.50;12.10;;;16.20;96.70;;;;;;4842197;29;20459;-84
2022/05/08 06:24:20;;;;;;;14.30;11.93;;;16.10;96.70;;;;;;4838445;29;20610;-84
2022/05/08 06:26:47;;;;;;;12.63;11.40;;;16.00;97.10;;;;;;4836057;29;20458;-84
2022/05/08 06:29:15;;;;;;;13.63;11.00;;;15.80;97.40;;;;;;4851110;29;20477;-83
2022/05/08 06:31:43;;;;;;;15.27;13.10;;;15.90;97.90;;;;;;4857482;29;20447;-84
2022/05/08 06:34:14;;;;;;;14.90;11.63;;;16.20;97.30;;;;;;4856525;29;20534;-87
2022/05/08 06:36:41;;;;;;;12.93;11.40;;;16.10;97.00;;;;;;4849974;29;21023;-80
2022/05/08 06:39:08;;;;;;;14.70;12.80;;;16.20;96.60;;;;;;4871447;29;20948;-85
2022/05/08 06:41:36;;;;;;;14.17;12.67;;;16.30;96.10;;;;;;4852807;29;20466;-86
2022/05/08 06:44:03;;;;;;;15.30;12.30;;;16.20;96.10;;;;;;4847332;29;20492;-84
2022/05/08 06:46:32;;;;;;;14.83;12.90;;;16.30;95.60;;;;;;4850597;29;20562;-82
2022/05/08 06:48:59;;;;;;;15.27;12.00;;;16.20;95.40;;;;;;4860538;29;20501;-84
2022/05/08 06:51:26;;;;;;;15.00;12.80;;;16.10;96.00;;;;;;4847867;29;20443;-83
2022/05/08 06:53:53;;;;;;;15.00;13.03;;;16.20;96.40;;;;;;4851687;29;20483;-84
2022/05/08 06:56:20;;;;;;;13.90;12.47;;;16.30;96.00;;;;;;4858688;29;20447;-83
2022/05/08 07:01:42;;;;;;;14.30;12.80;;;16.10;96.10;;;;;;4848282;29;20477;-85
2022/05/08 07:04:10;;;;;;;12.83;11.53;;;16.20;96.30;;;;;;4841859;29;20498;-82
2022/05/08 07:06:38;;;;;;;14.00;12.50;;;16.40;96.10;;;;;;4830905;29;20456;-83
2022/05/08 07:09:10;;;;;;;15.13;13.07;;;16.60;95.70;;;;;;4845680;29;20439;-83
2022/05/08 07:11:41;;;;;;;14.73;12.93;;;17.00;95.10;;;;;;4844715;29;20463;-84
2022/05/08 07:14:07;;;;;;;14.17;12.50;;;17.40;94.70;;;;;;4836959;29;20518;-84
2022/05/08 07:16:34;;;;;;;14.67;13.17;;;17.60;93.50;;;;;;4841264;29;20486;-85
2022/05/08 07:19:01;;;;;;;12.30;10.60;;;17.60;93.70;;;;;;4843528;29;20470;-83
2022/05/08 07:21:28;;;;;;;13.43;11.97;;;17.70;93.20;;;;;;4850773;29;20473;-85
2022/05/08 07:23:55;;;;;;;15.80;11.97;;;17.80;92.50;;;;;;4850546;29;20490;-85
2022/05/08 07:26:22;;;;;;;14.30;11.80;;;17.90;92.30;;;;;;4851122;29;20455;-85
2022/05/08 07:28:49;;;;;;;12.37;11.17;;;18.00;91.30;;;;;;4858022;29;20487;-84
2022/05/08 07:31:16;;;;;;;12.87;10.87;;;17.90;91.50;;;;;;4846817;29;20459;-84
2022/05/08 07:33:43;;;;;;;14.27;11.40;;;17.70;91.60;;;;;;4853210;29;20581;-83
2022/05/08 07:36:13;;;;;;;11.00;10.00;;;18.10;91.70;;;;;;4849025;29;21156;-84
2022/05/08 07:38:46;;;;;;;11.53;10.37;;;18.30;91.00;;;;;;4851545;29;20505;-85
2022/05/08 07:41:16;;;;;;;13.63;10.30;;;18.40;90.60;;;;;;4859199;29;20436;-82
2022/05/08 07:43:47;;;;;;;11.90;10.80;;;18.50;90.10;;;;;;4858461;29;20478;-83
2022/05/08 07:46:14;;;;;;;13.07;10.37;;;18.70;89.40;;;;;;4860334;29;20477;-83
2022/05/08 07:48:41;;;;;;;10.50;9.50;;;19.40;86.60;;;;;;4844279;29;20526;-82
2022/05/08 07:51:08;;;;;;;15.70;10.90;;;19.90;84.50;;;;;;4849469;29;20514;-84
2022/05/08 07:53:35;;;;;;;10.57;9.47;;;20.40;82.60;;;;;;4840031;29;20467;-83
2022/05/08 07:56:02;;;;;;;11.43;10.37;;;21.30;79.50;;;;;;4839620;29;20446;-83
2022/05/08 07:58:32;;;;;;;13.10;10.67;;;22.30;75.70;;;;;;4849965;29;20452;-82
2022/05/08 08:01:01;;;;;;;10.50;9.50;;;23.40;70.30;;;;;;4847995;29;20455;-85
2022/05/08 08:03:30;;;;;;;10.97;9.80;;;22.90;68.90;;;;;;4842778;29;20489;-84
2022/05/08 08:06:05;;;;;;;10.30;9.20;;;24.00;67.00;;;;;;4831523;29;20507;-84
2022/05/08 08:08:38;;;;;;;10.70;9.70;;;25.80;61.60;;;;;;4845837;29;20466;-83
2022/05/08 08:11:08;;;;;;;10.70;9.60;;;26.10;59.10;;;;;;4840966;29;20524;-87
2022/05/08 08:13:36;;;;;;;12.90;10.60;;;26.40;56.90;;;;;;4843079;29;20478;-84
2022/05/08 08:16:04;;;;;;;11.77;10.30;;;26.30;56.00;;;;;;4849037;29;20458;-83
2022/05/08 08:18:31;;;;;;;12.90;11.60;;;25.30;57.00;;;;;;4854851;29;20533;-82
2022/05/08 08:20:58;;;;;;;12.13;10.33;;;24.70;58.80;;;;;;4852844;29;20473;-83
2022/05/08 08:23:27;;;;;;;10.77;9.70;;;25.10;58.30;;;;;;4850068;29;20489;-82
2022/05/08 08:26:04;;;;;;;10.73;9.63;;;25.50;57.50;;;;;;4850285;29;20489;-84
2022/05/08 08:28:31;;;;;;;10.87;9.17;;;26.20;57.30;;;;;;4843405;29;21052;-84
2022/05/08 08:31:06;;;;;;;12.40;10.00;;;27.40;54.80;;;;;;4847523;29;20820;-84
2022/05/08 08:33:36;;;;;;;10.57;9.47;;;27.50;52.40;;;;;;4841244;29;20478;-85
2022/05/08 08:36:08;;;;;;;9.80;8.80;;;27.10;53.00;;;;;;4838732;29;20442;-85
2022/05/08 08:38:38;;;;;;;11.17;9.80;;;28.30;51.30;;;;;;4849204;29;20462;-83
2022/05/08 08:41:08;;;;;;;10.53;9.53;;;28.70;49.90;;;;;;4848176;29;20458;-84
2022/05/08 08:49:22;;;;;;;10.57;9.47;;;29.20;47.60;;;;;;4849607;29;21017;-83
2022/05/08 08:51:51;;;;;;;10.63;9.57;;;28.70;47.20;;;;;;4839902;29;20885;-83
2022/05/08 08:54:21;;;;;;;9.90;9.00;;;29.00;47.50;;;;;;4849816;29;21062;-84
2022/05/08 08:56:49;;;;;;;10.30;9.33;;;28.90;47.30;;;;;;4851227;29;20550;-86
2022/05/08 08:59:21;;;;;;;11.07;8.93;;;28.90;46.90;;;;;;4855149;29;20462;-85
2022/05/08 09:01:50;;;;;;;11.43;10.07;;;29.10;46.40;;;;;;4846964;29;20470;-85
2022/05/08 09:04:18;;;;;;;8.57;7.77;;;29.00;46.30;;;;;;4853099;29;20526;-85
2022/05/08 09:06:46;;;;;;;12.33;9.20;;;27.70;47.50;;;;;;4863645;29;20481;-83
2022/05/08 09:09:27;;;;;;;10.60;8.87;;;27.20;50.10;;;;;;4837310;29;20455;-84
2022/05/08 09:11:56;;;;;;;10.17;8.23;;;26.90;50.00;;;;;;4859450;29;20518;-83
2022/05/08 09:14:31;;;;;;;10.20;8.53;;;27.70;48.40;;;;;;4862493;29;20520;-82
2022/05/08 09:16:59;;;;;;;10.27;8.73;;;27.50;48.30;;;;;;4863190;29;20442;-84
2022/05/08 09:19:38;;;;;;;8.57;7.60;;;27.60;49.30;;;;;;4857409;29;20450;-84
2022/05/08 09:22:07;;;;;;;7.67;6.97;;;28.10;48.30;;;;;;4862183;29;20927;-82
2022/05/08 09:24:38;;;;;;;12.83;8.27;;;28.60;47.10;;;;;;4845348;29;20486;-83
2022/05/08 09:27:12;;;;;;;8.37;7.13;;;28.70;46.80;;;;;;4848690;29;20434;-83
2022/05/08 09:29:40;;;;;;;9.37;7.80;;;27.70;47.40;;;;;;4836838;29;20517;-81
2022/05/08 09:32:39;;;;;;;10.17;6.60;;;29.40;45.80;;;;;;4837860;29;20452;-82
2022/05/08 09:35:07;;;;;;;8.57;5.83;;;28.60;45.00;;;;;;4843830;29;20469;-81
2022/05/08 09:37:34;;;;;;;7.43;6.03;;;29.40;43.80;;;;;;4833535;29;20476;-80
2022/05/08 09:40:21;;;;;;;9.17;6.50;;;28.80;44.30;;;;;;4838791;29;20471;-82
2022/05/08 09:42:48;;;;;;;9.10;6.40;;;28.30;45.00;;;;;;4848898;29;20484;-83
2022/05/08 09:45:14;;;;;;;6.47;5.37;;;28.10;45.10;;;;;;4837728;29;20486;-82
2022/05/08 09:47:46;;;;;;;8.30;5.10;;;27.40;46.00;;;;;;4832140;29;20463;-84
2022/05/08 09:50:14;;;;;;;8.73;5.30;;;26.70;46.70;;;;;;4848781;29;20465;-82
2022/05/08 09:52:42;;;;;;;6.10;4.87;;;26.10;47.90;;;;;;4842528;29;20483;-83
2022/05/08 09:55:12;;;;;;;7.67;5.10;;;25.90;48.40;;;;;;4828907;29;20456;-83
2022/05/08 09:57:40;;;;;;;10.77;6.27;;;26.40;47.70;;;;;;4840119;29;20463;-84
2022/05/08 10:00:13;;;;;;;9.50;5.27;;;26.20;47.50;;;;;;4837433;29;20455;-83
2022/05/08 10:02:43;;;;;;;6.53;5.47;;;27.40;47.00;;;;;;4826584;29;20496;-84
2022/05/08 10:05:11;;;;;;;6.27;5.00;;;28.10;46.10;;;;;;4845176;29;20499;-82
2022/05/08 10:07:39;;;;;;;10.27;5.73;;;28.30;44.80;;;;;;4837740;29;20495;-83
2022/05/08 10:15:48;;;;;;;8.73;5.20;;;26.80;46.30;;;;;;4850804;29;20447;-83
2022/05/08 10:18:27;;;;;;;5.23;4.63;;;27.00;45.90;;;;;;4845650;29;20461;-83
2022/05/08 10:21:05;;;;;;;9.20;5.17;;;27.00;46.90;;;;;;4859551;29;20457;-83
2022/05/08 10:23:42;;;;;;;11.00;4.80;;;27.20;45.20;;;;;;4866608;29;20458;-83
2022/05/08 10:26:14;;;;;;;5.30;4.10;;;26.80;45.80;;;;;;4868468;29;20483;-84
2022/05/08 10:29:09;;;;;;;6.90;4.90;;;27.80;45.20;;;;;;4867416;29;20468;-83
2022/05/08 10:31:51;;;;;;;7.67;4.63;;;28.40;43.10;;;;;;4866950;29;20474;-83
2022/05/08 10:34:34;;;;;;;6.00;3.73;;;27.90;44.30;;;;;;4882382;29;20482;-87
2022/05/08 10:37:13;;;;;;;5.80;5.10;;;28.70;43.30;;;;;;4867093;29;20461;-85
2022/05/08 10:39:43;;;;;;;4.30;3.17;;;28.70;41.90;;;;;;4859304;29;20466;-82
2022/05/08 10:42:28;;;;;;;3.87;3.47;;;28.50;42.00;;;;;;4858719;29;20454;-82
2022/05/08 10:44:59;;;;;;;4.77;3.93;;;28.80;40.70;;;;;;4870387;29;20482;-81
2022/05/08 10:47:32;;;;;;;4.80;4.00;;;28.80;40.50;;;;;;4853294;29;20506;-83
2022/05/08 10:49:59;;;;;;;4.63;3.43;;;28.10;41.70;;;;;;4860200;29;20501;-84
2022/05/08 10:52:27;;;;;;;3.57;2.70;;;28.20;40.90;;;;;;4867584;29;20501;-83
2022/05/08 10:55:03;;;;;;;3.10;2.80;;;27.50;41.20;;;;;;4867838;29;20458;-83
2022/05/08 10:57:34;;;;;;;4.17;2.87;;;27.80;40.50;;;;;;4879015;29;20439;-84
2022/05/08 11:00:06;;;;;;;4.17;2.67;;;27.90;41.20;;;;;;4863241;29;20502;-85
2022/05/08 11:02:43;;;;;;;3.03;2.60;;;28.10;40.80;;;;;;4855500;29;20454;-84
2022/05/08 11:05:12;;;;;;;5.87;3.37;;;27.50;41.00;;;;;;4867766;29;20501;-85
2022/05/08 11:07:46;;;;;;;4.33;2.67;;;27.20;42.10;;;;;;4867114;29;20533;-84
2022/05/08 11:10:24;;;;;;;5.30;2.30;;;27.30;41.70;;;;;;4867050;29;20493;-85
2022/05/08 11:12:55;;;;;;;5.03;2.70;;;27.60;40.90;;;;;;4853866;29;20483;-84
2022/05/08 11:15:33;;;;;;;4.73;2.43;;;27.30;40.50;;;;;;4864396;29;20489;-86
2022/05/08 11:18:22;;;;;;;2.97;2.30;;;26.80;41.80;;;;;;4864876;29;20454;-87
2022/05/08 11:20:50;;;;;;;2.30;2.07;;;27.00;40.80;;;;;;4856579;29;20449;-84
2022/05/08 11:23:21;;;;;;;3.10;2.17;;;27.50;40.80;;;;;;4866449;29;20481;-84
2022/05/08 11:25:51;;;;;;;3.10;2.50;;;28.20;39.50;;;;;;4854109;29;20470;-86
2022/05/08 11:28:21;;;;;;;2.27;1.67;;;28.40;38.70;;;;;;4859609;29;20454;-85
2022/05/08 11:30:51;;;;;;;4.97;2.23;;;27.70;39.70;;;;;;4850765;29;20462;-85
2022/05/08 11:36:36;;;;;;;3.10;2.30;;;27.50;40.20;;;;;;4842064;29;20467;-84
2022/05/08 11:39:15;;;;;;;2.10;1.63;;;27.50;40.20;;;;;;4855478;29;20474;-83
2022/05/08 11:41:51;;;;;;;3.17;2.07;;;27.20;40.30;;;;;;4860372;29;20469;-83
2022/05/08 11:44:21;;;;;;;3.53;2.13;;;27.50;40.50;;;;;;4855050;29;20506;-82
2022/05/08 11:46:57;;;;;;;3.87;2.80;;;27.90;39.40;;;;;;4863311;29;20989;-82
2022/05/08 11:49:40;;;;;;;4.83;2.43;;;27.20;40.00;;;;;;4865966;29;20470;-84
2022/05/08 11:52:25;;;;;;;4.70;2.10;;;27.10;40.90;;;;;;4848736;29;20502;-83
2022/05/08 11:55:02;;;;;;;5.30;2.60;;;28.00;40.70;;;;;;4847957;29;20455;-85
2022/05/08 11:57:44;;;;;;;3.90;2.10;;;28.00;39.90;;;;;;4849100;29;20431;-85
2022/05/08 12:00:13;;;;;;;3.83;2.30;;;27.30;40.50;;;;;;4849265;29;20455;-83
2022/05/08 12:02:47;;;;;;;3.23;2.17;;;28.40;39.80;;;;;;4848319;29;20498;-85
2022/05/08 12:05:22;;;;;;;3.23;2.03;;;28.70;39.30;;;;;;4862567;29;20483;-85
2022/05/08 12:07:49;;;;;;;2.63;1.97;;;28.30;39.20;;;;;;4854869;29;20454;-85
2022/05/08 12:10:17;;;;;;;3.33;2.30;;;27.60;39.40;;;;;;4855931;29;20454;-87
2022/05/08 12:13:02;;;;;;;4.63;2.30;;;28.00;39.30;;;;;;4855126;29;20494;-85
2022/05/08 12:15:32;;;;;;;3.27;2.13;;;28.80;38.00;;;;;;4844495;29;20451;-86
2022/05/08 12:18:02;;;;;;;2.63;1.90;;;28.60;37.90;;;;;;4842690;29;20465;-85
2022/05/08 12:20:36;;;;;;;2.77;1.87;;;28.10;38.60;;;;;;4845873;29;20579;-84
2022/05/08 12:23:15;;;;;;;2.70;1.93;;;28.10;38.50;;;;;;4837393;29;20475;-83
2022/05/08 12:25:44;;;;;;;2.70;1.80;;;28.10;38.80;;;;;;4840418;29;20475;-85
2022/05/08 12:28:12;;;;;;;3.40;1.97;;;28.10;38.60;;;;;;4838458;29;20455;-84
2022/05/08 12:30:39;;;;;;;2.83;2.00;;;27.90;39.20;;;;;;4843938;29;20546;-85
2022/05/08 12:33:06;;;;;;;3.17;2.50;;;28.00;39.00;;;;;;4863412;29;20818;-85
2022/05/08 12:35:35;;;;;;;5.20;2.80;;;28.40;38.00;;;;;;4847075;29;20465;-84
2022/05/08 12:38:02;;;;;;;5.20;2.40;;;28.60;37.90;;;;;;4846498;29;20463;-84
2022/05/08 12:40:29;;;;;;;5.10;3.13;;;27.80;38.90;;;;;;4840764;29;20499;-86
2022/05/08 12:42:56;;;;;;;3.33;1.97;;;27.70;39.70;;;;;;4840109;29;20515;-85
2022/05/08 12:45:23;;;;;;;3.30;2.37;;;28.30;39.20;;;;;;4845234;29;20871;-84
2022/05/08 12:47:49;;;;;;;5.20;2.47;;;27.50;38.90;;;;;;4846356;29;20915;-84
2022/05/08 12:50:16;;;;;;;2.67;1.90;;;27.50;38.70;;;;;;4835689;29;20495;-84
2022/05/08 12:52:45;;;;;;;3.47;2.10;;;27.20;39.30;;;;;;4839827;29;20467;-84
2022/05/08 12:55:14;;;;;;;4.20;2.07;;;27.40;38.80;;;;;;4838002;29;20497;-85
2022/05/08 13:00:30;;;;;;;3.20;1.80;;;28.50;36.50;;;;;;4847284;29;20470;-84
2022/05/08 13:02:57;;;;;;;4.80;2.03;;;27.90;37.30;;;;;;4838995;29;20511;-83
2022/05/08 13:05:24;;;;;;;3.07;1.90;;;27.50;38.80;;;;;;4839085;29;20495;-85
2022/05/08 13:07:51;;;;;;;2.97;1.90;;;27.70;38.30;;;;;;4845801;29;20461;-85
2022/05/08 13:10:19;;;;;;;2.20;2.00;;;27.50;38.00;;;;;;4845073;29;20569;-84
2022/05/08 13:12:48;;;;;;;3.70;2.23;;;27.10;38.20;;;;;;4846591;29;20475;-83
2022/05/08 13:15:17;;;;;;;3.20;2.27;;;27.10;37.70;;;;;;4839781;29;20463;-83
2022/05/08 13:17:44;;;;;;;2.63;2.13;;;26.50;38.10;;;;;;4836625;29;20553;-85
2022/05/08 13:20:10;;;;;;;2.47;1.90;;;27.00;39.00;;;;;;4849134;29;20537;-85
2022/05/08 13:22:41;;;;;;;4.13;2.07;;;27.40;37.90;;;;;;4839019;29;20486;-84